Time;durP1;ratioP1;P1;durP2;ratioP2;P2;SDS_P1;SDS_P2;PMS_P1;PMS_P2;Temp;Humidity;BMP_temperature;BMP_pressure;BME280_temperature;BME280_humidity;BME280_pressure;Samples;Min_cycle;Max_cycle;Signal;HPM_P1;HPM_P2
2021/09/13 00:00:39;;;;;;;;;;;;;;;28.50;59.02;100433.00;5075069;28;70607;-37
2021/09/13 00:03:12;;;;;;;;;;;;;;;28.60;59.86;100437.09;5076058;28;66794;-37
2021/09/13 00:05:42;;;;;;;;;;;;;;;28.61;60.68;100446.84;5055292;28;70597;-37
2021/09/13 00:08:28;;;;;;;;;;;;;;;28.61;60.73;100433.34;5074545;28;66063;-37
2021/09/13 00:11:49;;;;;;;;;;;;;;;28.64;60.84;100443.72;5075641;28;70783;-37
2021/09/13 00:14:21;;;;;;;;;;;;;;;28.66;61.58;100452.44;5066796;28;65479;-37
2021/09/13 00:16:51;;;;;;;;;;;;;;;28.70;63.69;100459.06;5071118;28;70377;-37
2021/09/13 00:19:23;;;;;;;;;;;;;;;28.78;64.62;100461.53;5072083;28;66237;-38
2021/09/13 00:21:56;;;;;;;;;;;;;;;28.84;66.27;100466.03;5076223;28;70252;-38
2021/09/13 00:24:27;;;;;;;;;;;;;;;28.84;67.24;100476.84;5075231;28;65949;-37
2021/09/13 00:27:13;;;;;;;;;;;;;;;28.90;68.29;100481.38;5072186;28;71374;-38
2021/09/13 00:29:46;;;;;;;;;;;;;;;28.92;68.92;100490.09;5071522;28;65866;-37
2021/09/13 00:32:19;;;;;;;;;;;;;;;28.99;68.99;100494.63;5079566;28;70667;-37
2021/09/13 00:34:51;;;;;;;;;;;;;;;29.22;69.50;100494.09;5061219;28;66011;-37
2021/09/13 00:37:23;;;;;;;;;;;;;;;29.31;70.00;100493.63;5059869;28;69104;-37
2021/09/13 00:40:04;;;;;;;;;;;;;;;29.42;69.70;100494.78;5079453;28;65509;-37
2021/09/13 00:42:34;;;;;;;;;;;;;;;29.46;70.39;100495.16;5063203;28;69552;-37
2021/09/13 00:45:12;;;;;;;;;;;;;;;29.49;71.10;100503.66;5076352;27;66726;-37
2021/09/13 00:47:43;;;;;;;;;;;;;;;29.52;70.82;100505.09;5079751;28;69587;-37
2021/09/13 00:50:15;;;;;;;;;;;;;;;29.55;71.39;100504.66;5058918;28;65806;-37
2021/09/13 00:52:50;;;;;;;;;;;;;;;29.58;71.82;100510.44;5056730;28;70090;-37
2021/09/13 00:55:27;;;;;;;;;;;;;;;29.59;72.84;100509.41;5054649;28;66575;-37
2021/09/13 00:57:58;;;;;;;;;;;;;;;29.66;72.74;100511.25;5052407;28;70311;-37
2021/09/13 01:00:31;;;;;;;;;;;;;;;29.68;72.59;100519.97;5056498;28;67316;-36
2021/09/13 01:03:03;;;;;;;;;;;;;;;29.71;73.57;100520.34;5060837;28;68824;-36
2021/09/13 01:05:38;;;;;;;;;;;;;;;29.70;73.73;100512.44;5059186;28;66307;-37
2021/09/13 01:08:12;;;;;;;;;;;;;;;29.73;73.11;100523.66;5055200;28;69686;-39
2021/09/13 01:10:51;;;;;;;;;;;;;;;29.74;73.43;100525.31;5050751;28;66284;-39
2021/09/13 01:13:24;;;;;;;;;;;;;;;29.76;73.48;100520.50;5052777;28;72546;-36
2021/09/13 01:16:04;;;;;;;;;;;;;;;29.75;73.48;100528.84;5038849;28;65819;-38
2021/09/13 01:18:39;;;;;;;;;;;;;;;29.82;73.34;100533.13;5052846;28;70230;-37
2021/09/13 01:21:12;;;;;;;;;;;;;;;29.80;73.97;100540.63;5058462;28;66436;-37
2021/09/13 01:23:48;;;;;;;;;;;;;;;29.83;73.02;100551.00;5052533;28;70389;-37
2021/09/13 01:26:40;;;;;;;;;;;;;;;29.89;73.41;100553.88;5054615;28;66214;-37
2021/09/13 01:29:33;;;;;;;;;;;;;;;29.93;73.00;100560.50;5053732;28;68161;-37
2021/09/13 01:32:15;;;;;;;;;;;;;;;29.91;73.47;100558.03;5029305;28;66664;-37
2021/09/13 01:35:03;;;;;;;;;;;;;;;29.98;72.92;100568.78;5049165;28;70060;-37
2021/09/13 01:37:53;;;;;;;;;;;;;;;30.14;72.70;100562.78;5036753;28;66920;-37
2021/09/13 01:40:38;;;;;;;;;;;;;;;30.24;72.17;100568.56;5055526;28;69976;-37
2021/09/13 01:43:23;;;;;;;;;;;;;;;30.27;72.59;100576.22;5040900;28;65833;-37
2021/09/13 01:46:00;;;;;;;;;;;;;;;30.23;72.12;100580.44;5052877;28;69853;-42
2021/09/13 01:48:40;;;;;;;;;;;;;;;30.30;72.56;100576.84;5050227;28;66881;-37
2021/09/13 01:51:28;;;;;;;;;;;;;;;30.27;72.29;100581.63;5055509;28;70682;-39
2021/09/13 01:54:27;;;;;;;;;;;;;;;30.31;72.14;100589.31;5051475;28;66003;-39
2021/09/13 01:57:10;;;;;;;;;;;;;;;30.35;72.08;100595.94;5038614;28;69348;-39
2021/09/13 01:59:47;;;;;;;;;;;;;;;30.31;72.10;100594.72;5056177;28;66318;-39
2021/09/13 02:02:53;;;;;;;;;;;;;;;30.36;71.74;100598.41;5049662;28;69036;-39
2021/09/13 02:05:53;;;;;;;;;;;;;;;30.46;71.56;100604.16;5053007;28;65699;-38
2021/09/13 02:08:37;;;;;;;;;;;;;;;30.53;71.51;100609.47;5055470;28;68705;-38
2021/09/13 02:11:47;;;;;;;;;;;;;;;30.54;71.41;100605.75;5050086;28;66413;-38
2021/09/13 02:14:34;;;;;;;;;;;;;;;30.56;71.87;100608.19;5052489;28;70021;-39
2021/09/13 02:17:32;;;;;;;;;;;;;;;30.49;71.76;100606.41;5039383;28;66507;-41
2021/09/13 02:20:25;;;;;;;;;;;;;;;30.51;72.02;100603.47;5061448;28;70292;-39
2021/09/13 02:23:02;;;;;;;;;;;;;;;30.57;71.34;100608.00;5050275;28;66979;-39
2021/09/13 02:25:39;;;;;;;;;;;;;;;30.51;71.70;100600.78;5040067;28;70147;-40
2021/09/13 02:28:22;;;;;;;;;;;;;;;30.57;71.39;100610.69;5069459;28;65538;-40
2021/09/13 02:31:12;;;;;;;;;;;;;;;30.60;71.70;100602.13;5067483;28;70756;-40
2021/09/13 02:33:59;;;;;;;;;;;;;;;30.49;71.73;100606.41;5054038;28;65864;-40
2021/09/13 02:36:43;;;;;;;;;;;;;;;30.45;71.57;100607.06;5055518;28;71086;-38
2021/09/13 02:39:36;;;;;;;;;;;;;;;30.58;71.26;100601.50;5063729;28;66240;-41
2021/09/13 02:42:20;;;;;;;;;;;;;;;30.58;71.51;100598.81;5054040;28;69536;-39
2021/09/13 02:44:58;;;;;;;;;;;;;;;30.55;71.24;100596.56;5041035;28;66523;-39
2021/09/13 02:47:38;;;;;;;;;;;;;;;30.52;71.31;100590.78;5055746;28;70537;-39
2021/09/13 02:50:12;;;;;;;;;;;;;;;30.50;71.44;100585.56;5038095;28;65970;-39
2021/09/13 02:52:51;;;;;;;;;;;;;;;30.68;70.94;100585.59;5053527;28;69313;-40
2021/09/13 02:55:23;;;;;;;;;;;;;;;30.84;69.52;100575.22;5038433;28;66980;-41
2021/09/13 02:58:06;;;;;;;;;;;;;;;30.83;69.70;100573.56;5053248;28;70348;-41
2021/09/13 03:00:56;;;;;;;;;;;;;;;30.92;69.89;100574.91;5054732;28;66247;-39
2021/09/13 03:03:31;;;;;;;;;;;;;;;30.89;69.59;100576.19;5050860;28;69389;-39
2021/09/13 03:06:05;;;;;;;;;;;;;;;30.81;70.43;100571.06;5044664;28;66841;-38
2021/09/13 03:08:41;;;;;;;;;;;;;;;30.79;70.50;100569.63;5052910;28;69673;-39
2021/09/13 03:11:23;;;;;;;;;;;;;;;30.92;69.38;100564.06;5035833;28;65360;-39
2021/09/13 03:14:04;;;;;;;;;;;;;;;30.92;70.27;100561.34;5053823;28;69649;-39
2021/09/13 03:16:45;;;;;;;;;;;;;;;30.88;70.68;100552.06;5055569;28;66426;-41
2021/09/13 03:19:25;;;;;;;;;;;;;;;30.87;70.15;100555.78;5048654;28;70004;-39
2021/09/13 03:21:59;;;;;;;;;;;;;;;31.03;69.02;100568.72;5070690;28;67365;-38
2021/09/13 03:24:30;;;;;;;;;;;;;;;31.09;68.57;100565.09;5049808;28;69254;-38
2021/09/13 03:27:03;;;;;;;;;;;;;;;31.16;67.88;100565.00;5055298;28;65924;-40
2021/09/13 03:29:38;;;;;;;;;;;;;;;31.24;68.45;100561.16;5048301;28;70129;-37
2021/09/13 03:32:08;;;;;;;;;;;;;;;31.23;68.11;100560.34;5057119;28;66408;-38
2021/09/13 03:34:38;;;;;;;;;;;;;;;31.20;68.61;100568.06;5032328;28;69412;-38
2021/09/13 03:37:09;;;;;;;;;;;;;;;31.22;68.07;100563.25;5051005;28;66486;-38
2021/09/13 03:39:39;;;;;;;;;;;;;;;31.22;68.24;100563.25;5052459;28;69901;-39
2021/09/13 03:42:11;;;;;;;;;;;;;;;31.18;68.44;100552.06;5057167;28;66969;-39
2021/09/13 03:44:43;;;;;;;;;;;;;;;31.20;67.72;100554.53;5048218;28;70790;-39
2021/09/13 03:47:49;;;;;;;;;;;;;;;31.15;68.33;100550.63;5042796;28;65398;-39
2021/09/13 03:50:23;;;;;;;;;;;;;;;31.15;68.38;100552.53;5038087;28;70044;-37
2021/09/13 03:52:58;;;;;;;;;;;;;;;31.21;67.77;100556.19;5033385;28;66350;-40
2021/09/13 03:55:28;;;;;;;;;;;;;;;31.27;68.25;100545.25;5037549;28;70632;-41
2021/09/13 03:58:03;;;;;;;;;;;;;;;31.36;67.95;100543.88;5052283;28;66389;-40
2021/09/13 04:00:50;;;;;;;;;;;;;;;31.36;68.38;100532.22;5052023;28;71087;-40
2021/09/13 04:03:32;;;;;;;;;;;;;;;31.47;67.43;100539.56;5054566;28;65591;-40
2021/09/13 04:06:03;;;;;;;;;;;;;;;31.50;67.76;100539.09;5035785;28;68879;-39
2021/09/13 04:12:04;;;;;;;;;;;;;;;31.48;68.08;100522.25;5052570;28;70135;-39
2021/09/13 04:14:52;;;;;;;;;;;;;;;31.41;68.38;100537.78;5058645;28;66908;-39
2021/09/13 04:17:46;;;;;;;;;;;;;;;31.45;68.43;100525.41;5047435;28;69925;-39
2021/09/13 04:20:50;;;;;;;;;;;;;;;31.39;68.06;100512.78;5053937;28;66161;-38
2021/09/13 04:23:46;;;;;;;;;;;;;;;31.43;67.83;100513.16;5049740;28;70103;-38
2021/09/13 04:26:35;;;;;;;;;;;;;;;31.40;68.10;100500.91;5054367;28;66550;-38
2021/09/13 04:29:23;;;;;;;;;;;;;;;31.41;68.27;100491.69;5053733;28;69606;-40
2021/09/13 04:32:29;;;;;;;;;;;;;;;31.42;68.12;100482.50;5034185;28;66430;-38
2021/09/13 04:35:32;;;;;;;;;;;;;;;31.41;68.16;100486.28;5046828;28;69645;-38
2021/09/13 04:38:22;;;;;;;;;;;;;;;31.43;67.71;100476.03;5058384;28;65516;-38
2021/09/13 04:41:05;;;;;;;;;;;;;;;31.39;67.57;100475.66;5048012;28;70197;-40
2021/09/13 04:44:08;;;;;;;;;;;;;;;31.47;67.19;100469.06;5040175;28;66204;-39
2021/09/13 04:46:52;;;;;;;;;;;;;;;31.47;66.89;100463.66;5057023;28;70171;-40
2021/09/13 04:49:38;;;;;;;;;;;;;;;31.46;67.06;100467.44;5041547;28;66296;-41
2021/09/13 04:52:47;;;;;;;;;;;;;;;31.49;66.56;100439.84;5038313;28;70362;-41
2021/09/13 04:55:18;;;;;;;;;;;;;;;31.53;66.33;100441.03;5026332;28;64855;-40
2021/09/13 04:57:51;;;;;;;;;;;;;;;31.48;66.14;100443.63;5056494;28;70002;-47
2021/09/13 05:00:21;;;;;;;;;;;;;;;31.51;66.26;100432.31;5057392;28;66317;-38
2021/09/13 05:02:52;;;;;;;;;;;;;;;31.53;66.35;100424.75;5036051;28;70025;-39
2021/09/13 05:05:22;;;;;;;;;;;;;;;31.50;66.24;100419.81;5054021;28;66652;-39
2021/09/13 05:07:53;;;;;;;;;;;;;;;31.41;66.94;100421.22;5057927;28;69917;-39
2021/09/13 05:10:26;;;;;;;;;;;;;;;31.63;66.33;100417.94;5056309;28;66212;-39
2021/09/13 05:12:56;;;;;;;;;;;;;;;31.67;65.89;100419.09;5038733;28;69980;-39
2021/09/13 05:15:27;;;;;;;;;;;;;;;31.64;66.45;100403.31;5052309;28;66416;-39
2021/09/13 05:17:57;;;;;;;;;;;;;;;31.45;66.92;100405.31;5059379;28;70278;-39
2021/09/13 05:20:28;;;;;;;;;;;;;;;31.58;66.35;100405.91;5054482;28;65627;-39
2021/09/13 05:22:59;;;;;;;;;;;;;;;31.51;64.98;100391.66;5056550;28;70749;-38
2021/09/13 05:25:30;;;;;;;;;;;;;;;31.44;63.76;100388.22;5040919;28;66360;-39
2021/09/13 05:28:03;;;;;;;;;;;;;;;31.35;62.83;100373.34;5058565;28;70303;-41
2021/09/13 05:30:33;;;;;;;;;;;;;;;31.33;61.45;100370.06;5052967;28;66570;-39
2021/09/13 05:33:05;;;;;;;;;;;;;;;31.25;61.39;100367.69;5055045;28;70742;-39
2021/09/13 05:35:36;;;;;;;;;;;;;;;31.17;59.54;100355.31;5023752;28;67236;-39
2021/09/13 05:38:11;;;;;;;;;;;;;;;31.11;58.58;100343.53;5053832;28;69853;-39
2021/09/13 05:40:45;;;;;;;;;;;;;;;31.10;58.02;100341.88;5053524;28;65699;-39
2021/09/13 05:43:17;;;;;;;;;;;;;;;31.03;57.46;100333.03;5039761;28;70058;-38
2021/09/13 05:45:52;;;;;;;;;;;;;;;31.00;56.96;100338.94;5054765;28;66110;-39
2021/09/13 05:48:24;;;;;;;;;;;;;;;30.97;56.36;100336.69;5032744;28;70299;-38
2021/09/13 05:50:57;;;;;;;;;;;;;;;30.95;58.09;100330.69;5054955;28;66300;-38
2021/09/13 05:53:27;;;;;;;;;;;;;;;30.94;56.87;100323.63;5053335;28;69822;-39
2021/09/13 05:55:58;;;;;;;;;;;;;;;30.91;56.75;100313.25;5035709;28;68215;-39
2021/09/13 05:58:31;;;;;;;;;;;;;;;30.90;56.17;100317.03;5053995;28;70018;-38
2021/09/13 06:01:04;;;;;;;;;;;;;;;30.89;56.19;100316.19;5056373;28;66672;-38
2021/09/13 06:03:36;;;;;;;;;;;;;;;30.89;55.76;100316.19;5049794;28;70109;-39
2021/09/13 06:06:18;;;;;;;;;;;;;;;30.84;54.73;100305.25;5058480;28;66741;-40
2021/09/13 06:08:50;;;;;;;;;;;;;;;30.85;55.10;100306.06;5074184;28;70271;-39
2021/09/13 06:11:26;;;;;;;;;;;;;;;30.80;54.17;100301.34;5054815;28;66548;-39
2021/09/13 06:13:59;;;;;;;;;;;;;;;30.82;53.63;100314.66;5054486;28;69986;-38
2021/09/13 06:16:33;;;;;;;;;;;;;;;30.81;53.05;100313.81;5059851;28;65864;-38
2021/09/13 06:19:09;;;;;;;;;;;;;;;30.81;52.81;100324.66;5050817;28;70415;-40
2021/09/13 06:21:44;;;;;;;;;;;;;;;30.78;52.76;100349.47;5051780;28;66583;-38
2021/09/13 06:24:16;;;;;;;;;;;;;;;30.75;52.74;100357.22;5057127;28;69446;-38
2021/09/13 06:26:47;;;;;;;;;;;;;;;30.72;52.03;100359.34;5055946;28;65015;-39
2021/09/13 06:29:19;;;;;;;;;;;;;;;30.67;52.35;100367.34;5031744;28;69256;-40
2021/09/13 06:31:51;;;;;;;;;;;;;;;30.62;51.71;100356.38;5053455;28;66844;-38
2021/09/13 06:34:23;;;;;;;;;;;;;;;30.65;51.09;100366.75;5049554;28;70160;-38
2021/09/13 06:37:01;;;;;;;;;;;;;;;30.62;51.04;100364.50;5053433;28;66288;-38
2021/09/13 06:39:34;;;;;;;;;;;;;;;30.59;51.18;100359.56;5034665;28;70121;-39
2021/09/13 06:42:06;;;;;;;;;;;;;;;30.56;51.69;100354.56;5054990;28;66480;-38
2021/09/13 06:44:44;;;;;;;;;;;;;;;30.53;50.68;100349.63;5057326;28;70084;-40
2021/09/13 06:50:02;;;;;;;;;;;;;;;30.49;51.66;100359.28;5064859;28;69501;-40
2021/09/13 06:52:36;;;;;;;;;;;;;;;30.47;51.34;100361.38;5038977;28;66777;-39
2021/09/13 06:55:07;;;;;;;;;;;;;;;30.43;51.17;100365.63;5054002;28;70074;-38
2021/09/13 06:57:44;;;;;;;;;;;;;;;30.41;50.82;100356.91;5052315;28;66363;-40
2021/09/13 07:00:17;;;;;;;;;;;;;;;30.38;51.06;100349.25;5038824;28;70486;-39
2021/09/13 07:02:48;;;;;;;;;;;;;;;30.36;51.28;100343.22;5051196;28;65845;-39
2021/09/13 07:05:25;;;;;;;;;;;;;;;30.30;50.95;100354.97;5051380;28;69928;-39
2021/09/13 07:07:58;;;;;;;;;;;;;;;30.27;50.50;100357.06;5050806;28;66610;-39
2021/09/13 07:10:35;;;;;;;;;;;;;;;30.24;50.31;100362.13;5045161;28;69547;-39
2021/09/13 07:13:11;;;;;;;;;;;;;;;30.22;50.22;100348.00;5067181;28;66189;-39
2021/09/13 07:15:45;;;;;;;;;;;;;;;30.16;50.81;100349.69;5052583;28;70005;-41
2021/09/13 07:18:18;;;;;;;;;;;;;;;30.12;50.90;100348.53;5054194;28;66236;-39
2021/09/13 07:20:52;;;;;;;;;;;;;;;30.10;50.70;100357.91;5035985;28;69161;-39
2021/09/13 07:23:24;;;;;;;;;;;;;;;30.07;50.71;100353.78;5048452;28;66793;-39
2021/09/13 07:25:56;;;;;;;;;;;;;;;30.09;50.56;100354.38;5016239;28;70010;-39
2021/09/13 07:28:34;;;;;;;;;;;;;;;30.15;50.28;100356.19;5050778;28;66622;-39
2021/09/13 07:31:04;;;;;;;;;;;;;;;30.15;49.95;100353.47;5016633;28;69914;-39
2021/09/13 07:33:38;;;;;;;;;;;;;;;30.15;49.62;100348.06;5051725;28;66651;-39
2021/09/13 07:36:11;;;;;;;;;;;;;;;30.14;49.88;100351.78;5031675;28;69785;-38
2021/09/13 07:39:14;;;;;;;;;;;;;;;30.10;48.71;100339.78;5045632;28;66134;-39
2021/09/13 07:41:46;;;;;;;;;;;;;;;30.07;49.33;100324.03;5036166;28;69910;-40
2021/09/13 07:44:17;;;;;;;;;;;;;;;30.03;49.43;100322.81;5050458;28;66123;-39
2021/09/13 07:46:48;;;;;;;;;;;;;;;30.02;48.37;100310.34;5034933;28;70861;-39
2021/09/13 07:49:22;;;;;;;;;;;;;;;30.02;48.30;100304.94;5032432;28;67147;-39
2021/09/13 07:51:55;;;;;;;;;;;;;;;30.02;48.23;100299.53;5031203;28;70320;-41
2021/09/13 07:54:26;;;;;;;;;;;;;;;30.00;48.81;100274.59;5014408;28;66633;-39
2021/09/13 07:57:01;;;;;;;;;;;;;;;30.00;49.70;100269.19;5064940;27;70506;-39
2021/09/13 07:59:33;;;;;;;;;;;;;;;29.98;49.56;100268.63;5051072;28;66183;-39
2021/09/13 08:02:06;;;;;;;;;;;;;;;29.92;49.57;100254.13;5046460;28;69888;-39
2021/09/13 08:04:40;;;;;;;;;;;;;;;29.90;49.46;100236.47;5043701;28;65854;-39
2021/09/13 08:07:25;;;;;;;;;;;;;;;29.87;49.78;100226.13;5047429;28;70411;-39
2021/09/13 08:09:55;;;;;;;;;;;;;;;29.89;49.38;100218.59;5029786;28;67186;-39
2021/09/13 08:12:32;;;;;;;;;;;;;;;29.84;49.62;100220.13;5052157;28;69864;-38
2021/09/13 08:15:11;;;;;;;;;;;;;;;29.81;48.88;100212.47;5063663;28;66304;-39
2021/09/13 08:17:47;;;;;;;;;;;;;;;29.79;48.96;100214.56;5030980;28;70012;-38
2021/09/13 08:20:23;;;;;;;;;;;;;;;29.90;55.57;100209.44;5047496;28;65958;-38
2021/09/13 08:23:04;;;;;;;;;;;;;;;29.95;60.82;100217.66;5040279;28;70506;-39
2021/09/13 08:25:40;;;;;;;;;;;;;;;29.96;62.17;100219.34;5045394;28;65248;-39
2021/09/13 08:28:23;;;;;;;;;;;;;;;30.01;62.95;100222.19;5040492;28;69561;-39
2021/09/13 08:30:54;;;;;;;;;;;;;;;30.01;63.64;100222.19;5044237;28;65371;-39
2021/09/13 08:33:27;;;;;;;;;;;;;;;30.02;63.95;100240.03;5062591;28;69725;-39
2021/09/13 08:36:03;;;;;;;;;;;;;;;30.03;63.74;100242.53;5045772;28;66335;-39
2021/09/13 08:38:38;;;;;;;;;;;;;;;30.04;63.87;100248.75;5027875;28;69502;-38
2021/09/13 08:41:12;;;;;;;;;;;;;;;30.08;63.86;100249.94;5031832;28;66462;-38
2021/09/13 08:43:48;;;;;;;;;;;;;;;30.12;63.93;100255.72;5047128;28;70500;-38
2021/09/13 08:46:34;;;;;;;;;;;;;;;30.08;63.69;100249.13;5052099;28;66579;-39
2021/09/13 08:49:10;;;;;;;;;;;;;;;30.13;63.98;100241.97;5047821;28;70601;-38
2021/09/13 08:51:52;;;;;;;;;;;;;;;30.15;64.56;100250.69;5053388;28;65658;-39
2021/09/13 08:54:30;;;;;;;;;;;;;;;30.16;64.05;100252.31;5070055;28;70373;-39
2021/09/13 08:57:03;;;;;;;;;;;;;;;30.20;64.40;100263.50;5051478;28;65531;-38
2021/09/13 08:59:37;;;;;;;;;;;;;;;30.22;64.22;100270.34;5054070;28;70145;-40
2021/09/13 09:02:13;;;;;;;;;;;;;;;30.22;64.55;100267.66;5053698;28;67061;-38
2021/09/13 09:04:55;;;;;;;;;;;;;;;30.25;64.20;100263.66;5055252;28;69543;-38
2021/09/13 09:07:28;;;;;;;;;;;;;;;30.24;63.99;100256.63;5074716;28;66973;-38
2021/09/13 09:10:10;;;;;;;;;;;;;;;30.13;64.57;100258.19;5050195;28;70030;-39
2021/09/13 09:13:00;;;;;;;;;;;;;;;30.11;63.91;100271.09;5070870;28;66860;-39
2021/09/13 09:15:36;;;;;;;;;;;;;;;30.02;63.73;100250.88;5051821;28;70232;-39
2021/09/13 09:18:16;;;;;;;;;;;;;;;30.21;64.00;100276.81;5072882;28;66392;-39
2021/09/13 09:20:50;;;;;;;;;;;;;;;30.28;63.63;100268.59;5067272;28;70343;-38
2021/09/13 09:23:21;;;;;;;;;;;;;;;30.35;64.75;100282.06;5068992;27;66443;-38
2021/09/13 09:26:10;;;;;;;;;;;;;;;30.38;64.20;100297.81;5073480;27;70059;-38
2021/09/13 09:28:41;;;;;;;;;;;;;;;30.44;64.54;100315.84;5068979;28;66811;-38
2021/09/13 09:31:14;;;;;;;;;;;;;;;30.46;64.77;100329.97;5070408;28;70316;-39
2021/09/13 09:33:48;;;;;;;;;;;;;;;30.50;65.40;100331.16;5051748;28;67068;-39
2021/09/13 09:36:21;;;;;;;;;;;;;;;30.50;65.88;100333.84;5045590;28;70243;-38
2021/09/13 09:38:53;;;;;;;;;;;;;;;30.53;66.31;100333.38;5071216;28;66127;-38
2021/09/13 09:41:23;;;;;;;;;;;;;;;30.51;66.64;100330.13;5065731;28;70135;-40
2021/09/13 09:43:57;;;;;;;;;;;;;;;30.48;66.96;100320.56;5072977;28;66914;-40
2021/09/13 09:46:40;;;;;;;;;;;;;;;30.50;67.04;100323.03;5054538;28;69377;-40
2021/09/13 09:49:22;;;;;;;;;;;;;;;30.54;66.33;100329.66;5049226;28;67256;-41
2021/09/13 09:51:53;;;;;;;;;;;;;;;30.57;66.25;100350.84;5070499;28;69966;-41
2021/09/13 09:54:24;;;;;;;;;;;;;;;30.63;68.02;100360.72;5074535;28;65464;-41
2021/09/13 09:56:58;;;;;;;;;;;;;;;30.60;68.32;100363.91;5055956;28;70414;-41
2021/09/13 09:59:36;;;;;;;;;;;;;;;30.40;68.81;100341.72;5051921;28;64936;-42
2021/09/13 10:02:16;;;;;;;;;;;;;;;30.50;68.59;100371.75;5040947;28;69905;-41
2021/09/13 10:04:48;;;;;;;;;;;;;;;30.44;69.34;100368.06;5074496;28;65312;-41
2021/09/13 10:07:20;;;;;;;;;;;;;;;30.44;69.80;100378.09;5053916;28;69657;-41
2021/09/13 10:09:50;;;;;;;;;;;;;;;30.38;70.12;100379.00;5073362;28;65408;-41
2021/09/13 10:12:20;;;;;;;;;;;;;;;30.34;70.30;100399.44;5071070;28;70900;-41
2021/09/13 10:14:51;;;;;;;;;;;;;;;30.30;70.90;100406.38;5049512;28;66275;-41
2021/09/13 10:17:22;;;;;;;;;;;;;;;30.31;70.40;100398.03;5052924;28;69959;-41
2021/09/13 10:19:52;;;;;;;;;;;;;;;30.26;69.81;100409.53;5054414;28;66693;-41
2021/09/13 10:22:22;;;;;;;;;;;;;;;30.24;69.92;100416.22;5075758;28;70476;-41
2021/09/13 10:24:54;;;;;;;;;;;;;;;30.13;69.27;100409.66;5056677;28;66857;-41
2021/09/13 10:27:25;;;;;;;;;;;;;;;30.16;69.42;100420.03;5051803;28;69138;-41
2021/09/13 10:30:15;;;;;;;;;;;;;;;30.11;69.11;100419.06;5072890;28;66660;-41
2021/09/13 10:32:46;;;;;;;;;;;;;;;30.09;69.32;100413.88;5034446;28;69931;-41
2021/09/13 10:35:18;;;;;;;;;;;;;;;30.05;68.54;100415.38;5053667;28;65312;-40
2021/09/13 10:37:49;;;;;;;;;;;;;;;30.05;69.12;100429.72;5064259;28;69743;-42
2021/09/13 10:40:25;;;;;;;;;;;;;;;30.08;69.80;100433.84;5063964;28;66560;-41
2021/09/13 10:42:56;;;;;;;;;;;;;;;30.14;69.49;100432.94;5070074;28;69118;-41
2021/09/13 10:45:29;;;;;;;;;;;;;;;30.19;69.54;100451.22;5050022;28;65608;-41
2021/09/13 10:47:59;;;;;;;;;;;;;;;30.23;69.15;100458.69;5073094;28;70324;-41
2021/09/13 10:51:01;;;;;;;;;;;;;;;30.26;69.03;100462.84;5064102;28;66428;-41
2021/09/13 10:53:32;;;;;;;;;;;;;;;30.27;69.48;100462.59;5037428;28;70342;-41
2021/09/13 10:56:07;;;;;;;;;;;;;;;30.31;69.09;100467.53;5069257;28;66607;-41
2021/09/13 10:58:44;;;;;;;;;;;;;;;30.33;69.06;100478.97;5066126;28;43687;-41
2021/09/13 11:01:17;;;;;;;;;;;;;;;30.35;69.68;100475.00;5046986;28;66135;-40
2021/09/13 11:03:51;;;;;;;;;;;;;;;30.36;69.65;100475.81;5067169;28;70457;-41
2021/09/13 11:06:21;;;;;;;;;;;;;;;30.38;69.68;100487.25;5070669;28;65745;-41
2021/09/13 11:08:53;;;;;;;;;;;;;;;30.38;69.60;100498.06;5052652;28;70208;-41
2021/09/13 11:11:44;;;;;;;;;;;;;;;30.40;69.06;100502.22;5064124;28;65642;-41
2021/09/13 11:14:16;;;;;;;;;;;;;;;30.41;69.30;100513.84;5034038;28;69885;-41
2021/09/13 11:16:48;;;;;;;;;;;;;;;30.42;69.53;100526.31;5068026;28;65884;-41
2021/09/13 11:19:19;;;;;;;;;;;;;;;30.42;69.38;100537.16;5068877;28;69712;-41
2021/09/13 11:21:51;;;;;;;;;;;;;;;30.42;69.56;100553.38;5067716;28;66182;-41
2021/09/13 11:24:25;;;;;;;;;;;;;;;30.44;69.70;100560.22;5037455;28;70045;-41
2021/09/13 11:27:00;;;;;;;;;;;;;;;30.45;69.79;100547.53;5070228;28;66560;-41
2021/09/13 11:29:37;;;;;;;;;;;;;;;30.46;70.18;100554.59;5069954;28;70107;-41
2021/09/13 11:32:12;;;;;;;;;;;;;;;30.49;69.59;100549.56;5020140;28;65870;-41
2021/09/13 11:34:49;;;;;;;;;;;;;;;30.50;69.67;100550.38;5072030;28;70302;-41
2021/09/13 11:37:26;;;;;;;;;;;;;;;30.48;69.73;100558.75;5052991;28;66380;-41
2021/09/13 11:40:16;;;;;;;;;;;;;;;30.55;69.58;100595.72;5053439;28;69353;-40
2021/09/13 11:42:46;;;;;;;;;;;;;;;30.53;69.34;100587.81;5050578;28;65481;-41
2021/09/13 11:45:21;;;;;;;;;;;;;;;30.56;69.66;100600.91;5053011;28;70024;-41
2021/09/13 11:48:03;;;;;;;;;;;;;;;30.55;68.98;100607.38;5051611;28;65791;-41
2021/09/13 11:50:37;;;;;;;;;;;;;;;30.58;68.63;100615.03;5069015;28;70360;-41
2021/09/13 11:53:12;;;;;;;;;;;;;;;30.56;69.06;100640.69;5069579;28;66279;-41
2021/09/13 11:55:42;;;;;;;;;;;;;;;30.55;69.06;100645.28;5049785;28;70410;-41
2021/09/13 11:58:17;;;;;;;;;;;;;;;30.56;68.61;100641.50;5068154;28;66433;-41
2021/09/13 12:00:48;;;;;;;;;;;;;;;30.53;68.08;100641.97;5069094;28;69805;-41
2021/09/13 12:03:29;;;;;;;;;;;;;;;30.44;68.36;100621.66;5069555;28;66781;-40
2021/09/13 12:06:04;;;;;;;;;;;;;;;30.50;67.75;100648.63;5068601;28;70479;-41
2021/09/13 12:08:34;;;;;;;;;;;;;;;30.51;68.24;100657.63;5050086;28;66855;-41
2021/09/13 12:11:11;;;;;;;;;;;;;;;30.48;67.88;100648.06;5049678;28;69814;-41
2021/09/13 12:13:43;;;;;;;;;;;;;;;30.44;67.63;100643.31;5061270;28;65334;-41
2021/09/13 12:16:24;;;;;;;;;;;;;;;30.50;67.38;100669.47;5070772;28;70513;-41
2021/09/13 12:18:55;;;;;;;;;;;;;;;30.48;67.24;100688.66;5036504;28;66293;-41
2021/09/13 12:21:27;;;;;;;;;;;;;;;30.46;67.51;100701.59;5065424;28;70950;-41
2021/09/13 12:24:02;;;;;;;;;;;;;;;30.45;67.39;100705.34;5063334;28;66472;-41
2021/09/13 12:26:32;;;;;;;;;;;;;;;30.48;66.82;100721.13;5050563;28;69764;-40
2021/09/13 12:29:09;;;;;;;;;;;;;;;30.46;66.87;100717.00;5057124;28;66584;-41
2021/09/13 12:31:39;;;;;;;;;;;;;;;30.45;66.72;100720.72;5049056;28;69610;-41
2021/09/13 12:34:10;;;;;;;;;;;;;;;30.43;66.71;100717.44;5057404;28;66609;-41
2021/09/13 12:36:46;;;;;;;;;;;;;;;30.41;66.81;100708.72;5055308;28;69632;-40
2021/09/13 12:39:21;;;;;;;;;;;;;;;30.39;66.97;100710.81;5077646;28;66808;-41
2021/09/13 12:41:55;;;;;;;;;;;;;;;30.38;66.79;100709.97;5080243;28;69969;-40
2021/09/13 12:44:29;;;;;;;;;;;;;;;30.36;66.78;100705.84;5042488;28;65763;-42
2021/09/13 12:47:19;;;;;;;;;;;;;;;30.36;66.78;100714.78;5061837;28;69822;-41
2021/09/13 12:49:53;;;;;;;;;;;;;;;30.38;66.73;100717.28;5044525;28;66005;-42
2021/09/13 12:52:47;;;;;;;;;;;;;;;30.32;67.30;100718.97;5078933;27;69287;-40
2021/09/13 12:55:32;;;;;;;;;;;;;;;30.30;66.17;100728.38;5060636;28;65466;-40
2021/09/13 12:58:36;;;;;;;;;;;;;;;30.23;65.17;100734.66;4998212;28;70892;-40
2021/09/13 13:01:28;;;;;;;;;;;;;;;30.12;64.44;100732.63;4995241;28;66675;-41
2021/09/13 13:04:18;;;;;;;;;;;;;;;30.04;63.24;100732.91;4994578;28;69171;-39
2021/09/13 13:07:15;;;;;;;;;;;;;;;29.93;62.85;100739.00;4968565;28;66687;-39
2021/09/13 13:10:06;;;;;;;;;;;;;;;29.87;62.23;100735.28;4914895;28;69128;-41
2021/09/13 13:12:56;;;;;;;;;;;;;;;29.85;61.72;100740.06;4917789;28;66192;-41
2021/09/13 13:16:44;;;;;;;;;;;;;;;29.77;61.64;100751.97;4859204;29;69086;-40
2021/09/13 13:19:33;;;;;;;;;;;;;;;29.72;61.06;100759.88;4831815;29;65927;-41
2021/09/13 13:22:38;;;;;;;;;;;;;;;29.66;59.49;100760.75;4840925;29;70103;-39
2021/09/13 13:25:41;;;;;;;;;;;;;;;29.58;59.15;100758.25;4853842;29;65550;-40
2021/09/13 13:28:45;;;;;;;;;;;;;;;29.57;59.27;100756.63;4856067;29;70103;-40
2021/09/13 13:31:46;;;;;;;;;;;;;;;29.50;58.45;100750.41;4888676;28;65839;-40
2021/09/13 13:34:52;;;;;;;;;;;;;;;29.44;57.29;100760.19;4940493;28;69431;-40
2021/09/13 13:37:55;;;;;;;;;;;;;;;29.39;57.60;100755.44;4947471;28;66532;-40